sensor_id;sensor_type;location;lat;lon;timestamp;temperature;humidity
67750;DHT22;54550;48.838;8.828;2023-05-10T00:01:07;11.00;99.90
67750;DHT22;54550;48.838;8.828;2023-05-10T00:03:33;11.00;99.90
67750;DHT22;54550;48.838;8.828;2023-05-10T00:05:59;11.00;99.90
67750;DHT22;54550;48.838;8.828;2023-05-10T00:08:24;11.00;99.90
67750;DHT22;54550;48.838;8.828;2023-05-10T00:10:50;11.00;99.90
67750;DHT22;54550;48.838;8.828;2023-05-10T00:13:15;11.00;99.90
67750;DHT22;54550;48.838;8.828;2023-05-10T00:15:41;11.00;99.90
67750;DHT22;54550;48.838;8.828;2023-05-10T00:18:07;11.00;99.90
67750;DHT22;54550;48.838;8.828;2023-05-10T00:20:32;11.00;99.90
67750;DHT22;54550;48.838;8.828;2023-05-10T00:22:58;10.90;99.90
67750;DHT22;54550;48.838;8.828;2023-05-10T00:25:24;10.90;99.90
67750;DHT22;54550;48.838;8.828;2023-05-10T00:27:49;11.00;99.90
67750;DHT22;54550;48.838;8.828;2023-05-10T00:30:15;10.90;99.90
67750;DHT22;54550;48.838;8.828;2023-05-10T00:32:40;10.90;99.90
67750;DHT22;54550;48.838;8.828;2023-05-10T00:35:06;10.90;99.90
67750;DHT22;54550;48.838;8.828;2023-05-10T00:37:32;10.90;99.90
67750;DHT22;54550;48.838;8.828;2023-05-10T00:39:58;10.90;99.90
67750;DHT22;54550;48.838;8.828;2023-05-10T00:42:23;10.90;99.90
67750;DHT22;54550;48.838;8.828;2023-05-10T00:44:49;10.90;99.90
67750;DHT22;54550;48.838;8.828;2023-05-10T00:47:16;10.90;99.90
67750;DHT22;54550;48.838;8.828;2023-05-10T00:49:42;10.90;99.90
67750;DHT22;54550;48.838;8.828;2023-05-10T00:52:08;10.90;99.90
67750;DHT22;54550;48.838;8.828;2023-05-10T00:54:34;10.90;99.90
67750;DHT22;54550;48.838;8.828;2023-05-10T00:57:00;10.90;99.90
67750;DHT22;54550;48.838;8.828;2023-05-10T00:59:25;10.90;99.90
67750;DHT22;54550;48.838;8.828;2023-05-10T01:01:52;10.90;99.90
67750;DHT22;54550;48.838;8.828;2023-05-10T01:04:17;10.90;99.90
67750;DHT22;54550;48.838;8.828;2023-05-10T01:06:45;10.90;99.90
67750;DHT22;54550;48.838;8.828;2023-05-10T01:09:10;10.90;99.90
67750;DHT22;54550;48.838;8.828;2023-05-10T01:11:38;10.90;99.90
67750;DHT22;54550;48.838;8.828;2023-05-10T01:14:05;10.90;99.90
67750;DHT22;54550;48.838;8.828;2023-05-10T01:16:35;10.90;99.90
67750;DHT22;54550;48.838;8.828;2023-05-10T01:19:28;10.90;99.90
67750;DHT22;54550;48.838;8.828;2023-05-10T01:23:02;10.90;99.90
67750;DHT22;54550;48.838;8.828;2023-05-10T01:33:28;10.90;99.90
67750;DHT22;54550;48.838;8.828;2023-05-10T01:36:05;10.90;99.90
67750;DHT22;54550;48.838;8.828;2023-05-10T01:41:48;10.90;99.90
67750;DHT22;54550;48.838;8.828;2023-05-10T01:44:20;10.90;99.90
67750;DHT22;54550;48.838;8.828;2023-05-10T01:46:57;10.90;99.90
67750;DHT22;54550;48.838;8.828;2023-05-10T01:49:26;10.90;99.90
67750;DHT22;54550;48.838;8.828;2023-05-10T01:51:54;10.80;99.90
67750;DHT22;54550;48.838;8.828;2023-05-10T01:54:23;10.80;99.90
67750;DHT22;54550;48.838;8.828;2023-05-10T01:56:55;10.70;99.90
67750;DHT22;54550;48.838;8.828;2023-05-10T01:59:21;10.70;99.90
67750;DHT22;54550;48.838;8.828;2023-05-10T02:01:48;10.70;99.90
67750;DHT22;54550;48.838;8.828;2023-05-10T02:04:17;10.70;99.90
67750;DHT22;54550;48.838;8.828;2023-05-10T02:06:45;10.60;99.90
67750;DHT22;54550;48.838;8.828;2023-05-10T02:09:11;10.60;99.90
67750;DHT22;54550;48.838;8.828;2023-05-10T02:11:39;10.60;99.90
67750;DHT22;54550;48.838;8.828;2023-05-10T02:14:07;10.60;99.90
67750;DHT22;54550;48.838;8.828;2023-05-10T02:16:35;10.60;99.90
67750;DHT22;54550;48.838;8.828;2023-05-10T02:19:02;10.60;99.90
67750;DHT22;54550;48.838;8.828;2023-05-10T02:21:29;10.60;99.90
67750;DHT22;54550;48.838;8.828;2023-05-10T02:23:57;10.60;99.90
67750;DHT22;54550;48.838;8.828;2023-05-10T02:26:24;10.60;99.90
67750;DHT22;54550;48.838;8.828;2023-05-10T02:28:51;10.70;99.90
67750;DHT22;54550;48.838;8.828;2023-05-10T02:31:17;10.70;99.90
67750;DHT22;54550;48.838;8.828;2023-05-10T02:33:45;10.70;99.90
67750;DHT22;54550;48.838;8.828;2023-05-10T02:36:12;10.70;99.90
67750;DHT22;54550;48.838;8.828;2023-05-10T02:38:39;10.80;99.90
67750;DHT22;54550;48.838;8.828;2023-05-10T02:41:05;10.80;99.90
67750;DHT22;54550;48.838;8.828;2023-05-10T02:43:32;10.90;99.90
67750;DHT22;54550;48.838;8.828;2023-05-10T02:45:58;10.90;99.90
67750;DHT22;54550;48.838;8.828;2023-05-10T02:48:24;10.90;99.90
67750;DHT22;54550;48.838;8.828;2023-05-10T02:50:51;10.90;99.90
67750;DHT22;54550;48.838;8.828;2023-05-10T02:53:31;10.80;99.90
67750;DHT22;54550;48.838;8.828;2023-05-10T02:56:01;10.90;99.90
67750;DHT22;54550;48.838;8.828;2023-05-10T02:58:29;10.90;99.90
67750;DHT22;54550;48.838;8.828;2023-05-10T03:00:55;10.90;99.90
67750;DHT22;54550;48.838;8.828;2023-05-10T03:03:20;10.90;99.90
67750;DHT22;54550;48.838;8.828;2023-05-10T03:05:46;10.80;99.90
67750;DHT22;54550;48.838;8.828;2023-05-10T03:08:12;10.80;99.90
67750;DHT22;54550;48.838;8.828;2023-05-10T03:10:45;10.80;99.90
67750;DHT22;54550;48.838;8.828;2023-05-10T03:13:22;10.80;99.90
67750;DHT22;54550;48.838;8.828;2023-05-10T03:15:58;10.90;99.90
67750;DHT22;54550;48.838;8.828;2023-05-10T03:18:44;10.90;99.90
67750;DHT22;54550;48.838;8.828;2023-05-10T03:21:13;10.90;99.90
67750;DHT22;54550;48.838;8.828;2023-05-10T03:23:45;10.90;99.90
67750;DHT22;54550;48.838;8.828;2023-05-10T03:26:17;10.90;99.90
67750;DHT22;54550;48.838;8.828;2023-05-10T03:28:43;10.90;99.90
67750;DHT22;54550;48.838;8.828;2023-05-10T03:31:09;10.80;99.90
67750;DHT22;54550;48.838;8.828;2023-05-10T03:33:35;10.80;99.90
67750;DHT22;54550;48.838;8.828;2023-05-10T03:36:01;10.80;99.90
67750;DHT22;54550;48.838;8.828;2023-05-10T03:38:26;10.80;99.90
67750;DHT22;54550;48.838;8.828;2023-05-10T03:40:52;10.80;99.90
67750;DHT22;54550;48.838;8.828;2023-05-10T03:43:17;10.80;99.90
67750;DHT22;54550;48.838;8.828;2023-05-10T03:45:43;10.80;99.90
67750;DHT22;54550;48.838;8.828;2023-05-10T03:48:08;10.80;99.90
67750;DHT22;54550;48.838;8.828;2023-05-10T03:50:34;10.90;99.90
67750;DHT22;54550;48.838;8.828;2023-05-10T03:52:59;10.80;99.90
67750;DHT22;54550;48.838;8.828;2023-05-10T03:55:25;10.80;99.90
67750;DHT22;54550;48.838;8.828;2023-05-10T03:57:50;10.80;99.90
67750;DHT22;54550;48.838;8.828;2023-05-10T04:00:16;10.80;99.90
67750;DHT22;54550;48.838;8.828;2023-05-10T04:02:42;10.80;99.90
67750;DHT22;54550;48.838;8.828;2023-05-10T04:05:08;10.80;99.90
67750;DHT22;54550;48.838;8.828;2023-05-10T04:07:33;10.80;99.90
67750;DHT22;54550;48.838;8.828;2023-05-10T04:09:59;10.80;99.90
67750;DHT22;54550;48.838;8.828;2023-05-10T04:12:24;10.80;99.90
67750;DHT22;54550;48.838;8.828;2023-05-10T04:14:50;10.80;99.90
67750;DHT22;54550;48.838;8.828;2023-05-10T04:17:16;10.80;99.90
67750;DHT22;54550;48.838;8.828;2023-05-10T04:19:41;10.80;99.90
67750;DHT22;54550;48.838;8.828;2023-05-10T04:22:07;10.80;99.90
67750;DHT22;54550;48.838;8.828;2023-05-10T04:24:32;10.80;99.90
67750;DHT22;54550;48.838;8.828;2023-05-10T04:26:58;10.80;99.90
67750;DHT22;54550;48.838;8.828;2023-05-10T04:29:23;10.80;99.90
67750;DHT22;54550;48.838;8.828;2023-05-10T04:31:49;10.80;99.90
67750;DHT22;54550;48.838;8.828;2023-05-10T04:34:16;10.80;99.90
67750;DHT22;54550;48.838;8.828;2023-05-10T04:36:41;10.80;99.90
67750;DHT22;54550;48.838;8.828;2023-05-10T04:39:07;10.80;99.90
67750;DHT22;54550;48.838;8.828;2023-05-10T04:41:32;10.90;99.90
67750;DHT22;54550;48.838;8.828;2023-05-10T04:43:58;10.90;99.90
67750;DHT22;54550;48.838;8.828;2023-05-10T04:46:23;10.90;99.90
67750;DHT22;54550;48.838;8.828;2023-05-10T04:48:49;10.90;99.90
67750;DHT22;54550;48.838;8.828;2023-05-10T04:51:14;10.90;99.90
67750;DHT22;54550;48.838;8.828;2023-05-10T04:53:40;10.90;99.90
67750;DHT22;54550;48.838;8.828;2023-05-10T04:56:06;10.90;99.90
67750;DHT22;54550;48.838;8.828;2023-05-10T04:58:32;11.00;99.90
67750;DHT22;54550;48.838;8.828;2023-05-10T05:00:59;11.00;99.90
67750;DHT22;54550;48.838;8.828;2023-05-10T05:03:29;11.10;99.90
67750;DHT22;54550;48.838;8.828;2023-05-10T05:05:55;11.10;99.90
67750;DHT22;54550;48.838;8.828;2023-05-10T05:08:20;11.10;99.90
67750;DHT22;54550;48.838;8.828;2023-05-10T05:10:46;11.20;99.90
67750;DHT22;54550;48.838;8.828;2023-05-10T05:13:13;11.20;99.90
67750;DHT22;54550;48.838;8.828;2023-05-10T05:15:38;11.30;99.90
67750;DHT22;54550;48.838;8.828;2023-05-10T05:18:04;11.30;99.90
67750;DHT22;54550;48.838;8.828;2023-05-10T05:20:32;11.30;99.90
67750;DHT22;54550;48.838;8.828;2023-05-10T05:22:58;11.30;99.90
67750;DHT22;54550;48.838;8.828;2023-05-10T05:25:24;11.30;99.90
67750;DHT22;54550;48.838;8.828;2023-05-10T05:27:49;11.30;99.90
67750;DHT22;54550;48.838;8.828;2023-05-10T05:30:15;11.30;99.90
67750;DHT22;54550;48.838;8.828;2023-05-10T05:32:41;11.30;99.90
67750;DHT22;54550;48.838;8.828;2023-05-10T05:35:06;11.40;99.90
67750;DHT22;54550;48.838;8.828;2023-05-10T05:37:32;11.40;99.90
67750;DHT22;54550;48.838;8.828;2023-05-10T05:39:58;11.50;99.90
67750;DHT22;54550;48.838;8.828;2023-05-10T05:42:23;11.60;99.90
67750;DHT22;54550;48.838;8.828;2023-05-10T05:44:49;11.60;99.90
67750;DHT22;54550;48.838;8.828;2023-05-10T05:47:14;11.60;99.90
67750;DHT22;54550;48.838;8.828;2023-05-10T05:49:40;11.60;99.90
67750;DHT22;54550;48.838;8.828;2023-05-10T05:52:05;11.70;99.90
67750;DHT22;54550;48.838;8.828;2023-05-10T05:54:31;11.70;99.90
67750;DHT22;54550;48.838;8.828;2023-05-10T05:56:58;11.80;99.90
67750;DHT22;54550;48.838;8.828;2023-05-10T05:59:24;11.90;99.90
67750;DHT22;54550;48.838;8.828;2023-05-10T06:01:49;12.00;99.90
67750;DHT22;54550;48.838;8.828;2023-05-10T06:04:15;12.00;99.90
67750;DHT22;54550;48.838;8.828;2023-05-10T06:06:41;12.00;99.90
67750;DHT22;54550;48.838;8.828;2023-05-10T06:09:07;12.10;99.90
67750;DHT22;54550;48.838;8.828;2023-05-10T06:11:33;12.10;99.90
67750;DHT22;54550;48.838;8.828;2023-05-10T06:13:59;12.20;99.90
67750;DHT22;54550;48.838;8.828;2023-05-10T06:16:25;12.40;99.90
67750;DHT22;54550;48.838;8.828;2023-05-10T06:18:53;12.40;99.90
67750;DHT22;54550;48.838;8.828;2023-05-10T06:21:18;12.50;99.90
67750;DHT22;54550;48.838;8.828;2023-05-10T06:23:44;12.60;99.90
67750;DHT22;54550;48.838;8.828;2023-05-10T06:26:10;12.60;99.90
67750;DHT22;54550;48.838;8.828;2023-05-10T06:28:35;12.60;99.90
67750;DHT22;54550;48.838;8.828;2023-05-10T06:31:03;12.70;99.90
67750;DHT22;54550;48.838;8.828;2023-05-10T06:33:29;12.90;99.90
67750;DHT22;54550;48.838;8.828;2023-05-10T06:35:54;12.90;99.90
67750;DHT22;54550;48.838;8.828;2023-05-10T06:38:20;12.90;99.90
67750;DHT22;54550;48.838;8.828;2023-05-10T06:40:46;13.00;99.90
67750;DHT22;54550;48.838;8.828;2023-05-10T06:43:11;13.10;99.90
67750;DHT22;54550;48.838;8.828;2023-05-10T06:45:37;13.30;99.90
67750;DHT22;54550;48.838;8.828;2023-05-10T06:48:02;13.30;99.90
67750;DHT22;54550;48.838;8.828;2023-05-10T06:50:28;13.40;99.90
67750;DHT22;54550;48.838;8.828;2023-05-10T06:52:54;13.40;99.90
67750;DHT22;54550;48.838;8.828;2023-05-10T06:55:20;13.40;99.90
67750;DHT22;54550;48.838;8.828;2023-05-10T06:57:46;13.50;99.90
67750;DHT22;54550;48.838;8.828;2023-05-10T07:00:13;13.50;99.90
67750;DHT22;54550;48.838;8.828;2023-05-10T07:02:39;13.70;99.90
67750;DHT22;54550;48.838;8.828;2023-05-10T07:05:05;13.70;99.90
67750;DHT22;54550;48.838;8.828;2023-05-10T07:07:30;13.60;99.90
67750;DHT22;54550;48.838;8.828;2023-05-10T07:09:56;13.70;99.90
67750;DHT22;54550;48.838;8.828;2023-05-10T07:12:25;13.80;99.90
67750;DHT22;54550;48.838;8.828;2023-05-10T07:14:51;13.60;99.90
67750;DHT22;54550;48.838;8.828;2023-05-10T07:17:17;13.60;99.90
67750;DHT22;54550;48.838;8.828;2023-05-10T07:19:43;13.60;99.90
67750;DHT22;54550;48.838;8.828;2023-05-10T07:22:08;13.60;99.90
67750;DHT22;54550;48.838;8.828;2023-05-10T07:24:34;13.60;99.90
67750;DHT22;54550;48.838;8.828;2023-05-10T07:27:00;13.70;99.90
67750;DHT22;54550;48.838;8.828;2023-05-10T07:29:26;13.90;99.90
67750;DHT22;54550;48.838;8.828;2023-05-10T07:31:51;13.90;99.90
67750;DHT22;54550;48.838;8.828;2023-05-10T07:34:17;14.10;99.90
67750;DHT22;54550;48.838;8.828;2023-05-10T07:36:43;14.10;99.90
67750;DHT22;54550;48.838;8.828;2023-05-10T07:39:08;14.00;99.90
67750;DHT22;54550;48.838;8.828;2023-05-10T07:41:34;14.20;99.90
67750;DHT22;54550;48.838;8.828;2023-05-10T07:44:00;14.20;99.90
67750;DHT22;54550;48.838;8.828;2023-05-10T07:46:25;14.30;99.90
67750;DHT22;54550;48.838;8.828;2023-05-10T07:48:51;14.40;99.90
67750;DHT22;54550;48.838;8.828;2023-05-10T07:51:16;14.70;99.90
67750;DHT22;54550;48.838;8.828;2023-05-10T07:53:42;15.00;99.90
67750;DHT22;54550;48.838;8.828;2023-05-10T07:58:45;15.40;99.90
67750;DHT22;54550;48.838;8.828;2023-05-10T08:01:11;15.50;99.90
67750;DHT22;54550;48.838;8.828;2023-05-10T08:03:36;15.50;99.90
67750;DHT22;54550;48.838;8.828;2023-05-10T08:06:02;15.70;99.90
67750;DHT22;54550;48.838;8.828;2023-05-10T08:08:28;15.70;99.90
67750;DHT22;54550;48.838;8.828;2023-05-10T08:10:54;15.50;99.90
67750;DHT22;54550;48.838;8.828;2023-05-10T08:13:19;15.10;99.90
67750;DHT22;54550;48.838;8.828;2023-05-10T08:15:45;14.70;99.90
67750;DHT22;54550;48.838;8.828;2023-05-10T08:18:11;14.30;99.90
67750;DHT22;54550;48.838;8.828;2023-05-10T08:20:36;14.00;99.90
67750;DHT22;54550;48.838;8.828;2023-05-10T08:23:02;13.90;99.90
67750;DHT22;54550;48.838;8.828;2023-05-10T08:25:28;14.20;99.90
67750;DHT22;54550;48.838;8.828;2023-05-10T08:27:53;14.40;99.90
67750;DHT22;54550;48.838;8.828;2023-05-10T08:30:19;14.70;99.90
67750;DHT22;54550;48.838;8.828;2023-05-10T08:32:44;14.90;99.90
67750;DHT22;54550;48.838;8.828;2023-05-10T08:35:10;15.10;99.90
67750;DHT22;54550;48.838;8.828;2023-05-10T08:37:35;15.30;99.90
67750;DHT22;54550;48.838;8.828;2023-05-10T08:40:01;15.30;99.90
67750;DHT22;54550;48.838;8.828;2023-05-10T08:42:30;15.50;99.90
67750;DHT22;54550;48.838;8.828;2023-05-10T08:44:57;15.80;99.90
67750;DHT22;54550;48.838;8.828;2023-05-10T08:47:22;15.80;99.90
67750;DHT22;54550;48.838;8.828;2023-05-10T08:49:48;15.80;99.90
67750;DHT22;54550;48.838;8.828;2023-05-10T08:52:17;15.70;99.90
67750;DHT22;54550;48.838;8.828;2023-05-10T08:54:43;15.80;99.90
67750;DHT22;54550;48.838;8.828;2023-05-10T08:57:10;15.80;99.90
67750;DHT22;54550;48.838;8.828;2023-05-10T08:59:35;15.40;99.90
67750;DHT22;54550;48.838;8.828;2023-05-10T09:02:05;15.00;99.90
67750;DHT22;54550;48.838;8.828;2023-05-10T09:04:30;14.60;99.90
67750;DHT22;54550;48.838;8.828;2023-05-10T09:06:56;14.50;99.90
67750;DHT22;54550;48.838;8.828;2023-05-10T09:09:23;14.30;99.90
67750;DHT22;54550;48.838;8.828;2023-05-10T09:11:49;14.30;99.90
67750;DHT22;54550;48.838;8.828;2023-05-10T09:14:15;14.30;99.90
67750;DHT22;54550;48.838;8.828;2023-05-10T09:16:41;14.30;99.90
67750;DHT22;54550;48.838;8.828;2023-05-10T09:19:07;14.40;99.90
67750;DHT22;54550;48.838;8.828;2023-05-10T09:21:35;14.60;99.90
67750;DHT22;54550;48.838;8.828;2023-05-10T09:24:04;14.90;99.90
67750;DHT22;54550;48.838;8.828;2023-05-10T09:26:30;15.20;99.90
67750;DHT22;54550;48.838;8.828;2023-05-10T09:28:58;15.60;99.90
67750;DHT22;54550;48.838;8.828;2023-05-10T09:31:25;16.30;99.90
67750;DHT22;54550;48.838;8.828;2023-05-10T09:34:08;16.90;99.90
67750;DHT22;54550;48.838;8.828;2023-05-10T09:36:33;17.40;99.90
67750;DHT22;54550;48.838;8.828;2023-05-10T09:38:59;17.70;99.90
67750;DHT22;54550;48.838;8.828;2023-05-10T09:41:25;17.40;99.90
67750;DHT22;54550;48.838;8.828;2023-05-10T09:43:55;17.00;99.90
67750;DHT22;54550;48.838;8.828;2023-05-10T09:46:22;16.30;99.90
67750;DHT22;54550;48.838;8.828;2023-05-10T09:48:48;16.10;99.90
67750;DHT22;54550;48.838;8.828;2023-05-10T09:51:24;15.80;99.90
67750;DHT22;54550;48.838;8.828;2023-05-10T09:54:12;15.70;99.90
67750;DHT22;54550;48.838;8.828;2023-05-10T09:56:38;15.90;99.90
67750;DHT22;54550;48.838;8.828;2023-05-10T09:59:06;15.70;99.90
67750;DHT22;54550;48.838;8.828;2023-05-10T10:01:32;15.90;99.90
67750;DHT22;54550;48.838;8.828;2023-05-10T10:03:58;15.70;99.90
67750;DHT22;54550;48.838;8.828;2023-05-10T10:06:24;15.50;99.90
67750;DHT22;54550;48.838;8.828;2023-05-10T10:08:51;15.30;99.90
67750;DHT22;54550;48.838;8.828;2023-05-10T10:11:17;15.00;99.90
67750;DHT22;54550;48.838;8.828;2023-05-10T10:13:42;14.80;99.90
67750;DHT22;54550;48.838;8.828;2023-05-10T10:16:08;14.70;99.90
67750;DHT22;54550;48.838;8.828;2023-05-10T10:18:36;14.40;99.90
67750;DHT22;54550;48.838;8.828;2023-05-10T10:21:07;14.20;99.90
67750;DHT22;54550;48.838;8.828;2023-05-10T10:23:35;14.40;99.90
67750;DHT22;54550;48.838;8.828;2023-05-10T10:26:01;14.50;99.90
67750;DHT22;54550;48.838;8.828;2023-05-10T10:28:56;14.50;99.90
67750;DHT22;54550;48.838;8.828;2023-05-10T10:31:48;14.60;99.90
67750;DHT22;54550;48.838;8.828;2023-05-10T10:34:25;14.80;99.90
67750;DHT22;54550;48.838;8.828;2023-05-10T10:36:52;15.00;99.90
67750;DHT22;54550;48.838;8.828;2023-05-10T10:39:20;15.20;99.90
67750;DHT22;54550;48.838;8.828;2023-05-10T10:41:51;15.20;99.90
67750;DHT22;54550;48.838;8.828;2023-05-10T10:47:05;15.80;99.90
67750;DHT22;54550;48.838;8.828;2023-05-10T10:49:38;15.80;99.90
67750;DHT22;54550;48.838;8.828;2023-05-10T10:52:27;15.70;99.90
67750;DHT22;54550;48.838;8.828;2023-05-10T11:00:37;15.90;99.90
67750;DHT22;54550;48.838;8.828;2023-05-10T11:03:08;16.00;99.90
67750;DHT22;54550;48.838;8.828;2023-05-10T11:10:36;15.50;99.90
67750;DHT22;54550;48.838;8.828;2023-05-10T11:13:06;15.60;99.90
67750;DHT22;54550;48.838;8.828;2023-05-10T11:15:36;15.50;99.90
67750;DHT22;54550;48.838;8.828;2023-05-10T11:18:28;15.20;99.90
67750;DHT22;54550;48.838;8.828;2023-05-10T11:21:00;15.00;99.90
67750;DHT22;54550;48.838;8.828;2023-05-10T11:26:12;14.70;99.90
67750;DHT22;54550;48.838;8.828;2023-05-10T11:28:44;14.70;99.90
67750;DHT22;54550;48.838;8.828;2023-05-10T11:31:10;14.90;99.90
67750;DHT22;54550;48.838;8.828;2023-05-10T11:33:45;14.90;99.90
67750;DHT22;54550;48.838;8.828;2023-05-10T11:36:16;15.10;99.90
67750;DHT22;54550;48.838;8.828;2023-05-10T11:38:42;15.30;99.90
67750;DHT22;54550;48.838;8.828;2023-05-10T11:41:09;15.40;99.90
67750;DHT22;54550;48.838;8.828;2023-05-10T11:43:35;15.50;99.90
67750;DHT22;54550;48.838;8.828;2023-05-10T11:46:04;15.70;99.90
67750;DHT22;54550;48.838;8.828;2023-05-10T11:48:30;16.00;99.90
67750;DHT22;54550;48.838;8.828;2023-05-10T11:50:56;16.30;99.90
67750;DHT22;54550;48.838;8.828;2023-05-10T11:53:25;16.60;99.90
67750;DHT22;54550;48.838;8.828;2023-05-10T11:55:51;17.00;99.90
67750;DHT22;54550;48.838;8.828;2023-05-10T11:58:18;17.30;99.90
67750;DHT22;54550;48.838;8.828;2023-05-10T12:00:44;17.40;99.90
67750;DHT22;54550;48.838;8.828;2023-05-10T12:03:11;17.40;99.90
67750;DHT22;54550;48.838;8.828;2023-05-10T12:05:37;17.40;99.90
67750;DHT22;54550;48.838;8.828;2023-05-10T12:08:23;17.20;99.90
67750;DHT22;54550;48.838;8.828;2023-05-10T12:10:48;16.80;99.90
67750;DHT22;54550;48.838;8.828;2023-05-10T12:13:15;16.30;99.90
67750;DHT22;54550;48.838;8.828;2023-05-10T12:15:41;16.10;99.90
67750;DHT22;54550;48.838;8.828;2023-05-10T12:18:11;16.10;99.90
67750;DHT22;54550;48.838;8.828;2023-05-10T12:20:37;16.10;99.90
67750;DHT22;54550;48.838;8.828;2023-05-10T12:23:03;16.10;99.90
67750;DHT22;54550;48.838;8.828;2023-05-10T12:25:34;16.20;99.90
67750;DHT22;54550;48.838;8.828;2023-05-10T12:28:02;16.40;99.90
67750;DHT22;54550;48.838;8.828;2023-05-10T12:30:30;16.90;99.90
67750;DHT22;54550;48.838;8.828;2023-05-10T12:33:08;17.20;99.90
67750;DHT22;54550;48.838;8.828;2023-05-10T12:35:42;17.50;99.90
67750;DHT22;54550;48.838;8.828;2023-05-10T12:38:43;17.80;99.90
67750;DHT22;54550;48.838;8.828;2023-05-10T12:41:11;18.00;99.90
67750;DHT22;54550;48.838;8.828;2023-05-10T12:43:37;17.50;99.90
67750;DHT22;54550;48.838;8.828;2023-05-10T12:48:32;17.10;99.90
67750;DHT22;54550;48.838;8.828;2023-05-10T12:50:59;16.80;99.90
67750;DHT22;54550;48.838;8.828;2023-05-10T12:53:25;16.90;99.90
67750;DHT22;54550;48.838;8.828;2023-05-10T12:55:51;17.10;99.90
67750;DHT22;54550;48.838;8.828;2023-05-10T12:58:16;17.50;99.90
67750;DHT22;54550;48.838;8.828;2023-05-10T13:00:42;17.60;99.90
67750;DHT22;54550;48.838;8.828;2023-05-10T13:03:09;17.70;99.90
67750;DHT22;54550;48.838;8.828;2023-05-10T13:05:35;18.10;99.90
67750;DHT22;54550;48.838;8.828;2023-05-10T13:08:01;18.30;99.90
67750;DHT22;54550;48.838;8.828;2023-05-10T13:10:27;18.10;99.90
67750;DHT22;54550;48.838;8.828;2023-05-10T13:12:53;17.90;99.90
67750;DHT22;54550;48.838;8.828;2023-05-10T13:15:18;17.60;99.90
67750;DHT22;54550;48.838;8.828;2023-05-10T13:17:44;17.30;99.90
67750;DHT22;54550;48.838;8.828;2023-05-10T13:20:11;17.40;99.90
67750;DHT22;54550;48.838;8.828;2023-05-10T13:22:37;17.40;99.90
67750;DHT22;54550;48.838;8.828;2023-05-10T13:25:02;17.40;99.90
67750;DHT22;54550;48.838;8.828;2023-05-10T13:27:28;17.40;99.90
67750;DHT22;54550;48.838;8.828;2023-05-10T13:29:54;17.30;99.90
67750;DHT22;54550;48.838;8.828;2023-05-10T13:32:20;17.30;99.90
67750;DHT22;54550;48.838;8.828;2023-05-10T13:34:46;17.30;99.90
67750;DHT22;54550;48.838;8.828;2023-05-10T13:37:11;17.20;99.90
67750;DHT22;54550;48.838;8.828;2023-05-10T13:39:37;17.40;99.90
67750;DHT22;54550;48.838;8.828;2023-05-10T13:42:03;17.30;99.90
67750;DHT22;54550;48.838;8.828;2023-05-10T13:44:29;17.40;99.90
67750;DHT22;54550;48.838;8.828;2023-05-10T13:46:56;17.20;99.90
67750;DHT22;54550;48.838;8.828;2023-05-10T13:49:21;17.10;99.90
67750;DHT22;54550;48.838;8.828;2023-05-10T13:51:47;17.20;99.90
67750;DHT22;54550;48.838;8.828;2023-05-10T13:54:13;17.40;99.90
67750;DHT22;54550;48.838;8.828;2023-05-10T13:56:39;17.50;99.90
67750;DHT22;54550;48.838;8.828;2023-05-10T13:59:04;17.60;99.90
67750;DHT22;54550;48.838;8.828;2023-05-10T14:01:30;17.70;99.90
67750;DHT22;54550;48.838;8.828;2023-05-10T14:03:56;18.00;99.90
67750;DHT22;54550;48.838;8.828;2023-05-10T14:06:22;18.30;99.90
67750;DHT22;54550;48.838;8.828;2023-05-10T14:08:47;18.20;99.90
67750;DHT22;54550;48.838;8.828;2023-05-10T14:11:13;18.30;99.90
67750;DHT22;54550;48.838;8.828;2023-05-10T14:13:38;18.10;99.90
67750;DHT22;54550;48.838;8.828;2023-05-10T14:16:04;17.70;99.90
67750;DHT22;54550;48.838;8.828;2023-05-10T14:18:30;17.20;99.90
67750;DHT22;54550;48.838;8.828;2023-05-10T14:20:56;17.00;99.90
67750;DHT22;54550;48.838;8.828;2023-05-10T14:23:22;16.90;99.90
67750;DHT22;54550;48.838;8.828;2023-05-10T14:25:52;16.90;99.90
67750;DHT22;54550;48.838;8.828;2023-05-10T14:28:18;17.10;99.90
67750;DHT22;54550;48.838;8.828;2023-05-10T14:30:44;17.20;99.90
67750;DHT22;54550;48.838;8.828;2023-05-10T14:33:10;17.30;99.90
67750;DHT22;54550;48.838;8.828;2023-05-10T14:35:35;17.20;99.90
67750;DHT22;54550;48.838;8.828;2023-05-10T14:38:02;17.30;99.90
67750;DHT22;54550;48.838;8.828;2023-05-10T14:40:28;17.20;99.90
67750;DHT22;54550;48.838;8.828;2023-05-10T14:42:54;17.20;99.90
67750;DHT22;54550;48.838;8.828;2023-05-10T14:45:20;17.20;99.90
67750;DHT22;54550;48.838;8.828;2023-05-10T14:47:46;17.10;99.90
67750;DHT22;54550;48.838;8.828;2023-05-10T14:50:12;17.20;99.90
67750;DHT22;54550;48.838;8.828;2023-05-10T14:52:37;17.30;99.90
67750;DHT22;54550;48.838;8.828;2023-05-10T14:55:03;17.30;99.90
67750;DHT22;54550;48.838;8.828;2023-05-10T14:57:28;17.60;99.90
67750;DHT22;54550;48.838;8.828;2023-05-10T14:59:55;17.70;99.90
67750;DHT22;54550;48.838;8.828;2023-05-10T15:02:21;17.80;99.90
67750;DHT22;54550;48.838;8.828;2023-05-10T15:04:47;17.90;99.90
67750;DHT22;54550;48.838;8.828;2023-05-10T15:07:13;17.70;99.90
67750;DHT22;54550;48.838;8.828;2023-05-10T15:09:40;17.60;99.90
67750;DHT22;54550;48.838;8.828;2023-05-10T15:12:06;17.70;99.90
67750;DHT22;54550;48.838;8.828;2023-05-10T15:14:31;17.40;99.90
67750;DHT22;54550;48.838;8.828;2023-05-10T15:16:58;17.30;99.90
67750;DHT22;54550;48.838;8.828;2023-05-10T15:19:24;17.20;99.90
67750;DHT22;54550;48.838;8.828;2023-05-10T15:21:49;17.10;99.90
67750;DHT22;54550;48.838;8.828;2023-05-10T15:24:15;17.10;99.90
67750;DHT22;54550;48.838;8.828;2023-05-10T15:26:41;17.30;99.90
67750;DHT22;54550;48.838;8.828;2023-05-10T15:29:06;17.60;99.90
67750;DHT22;54550;48.838;8.828;2023-05-10T15:31:32;17.70;99.90
67750;DHT22;54550;48.838;8.828;2023-05-10T15:34:00;17.60;99.90
67750;DHT22;54550;48.838;8.828;2023-05-10T15:36:26;17.60;99.90
67750;DHT22;54550;48.838;8.828;2023-05-10T15:38:52;17.60;99.90
67750;DHT22;54550;48.838;8.828;2023-05-10T15:41:18;17.60;99.90
67750;DHT22;54550;48.838;8.828;2023-05-10T15:43:43;17.50;99.90
67750;DHT22;54550;48.838;8.828;2023-05-10T15:46:09;17.40;99.90
67750;DHT22;54550;48.838;8.828;2023-05-10T15:48:34;17.40;99.90
67750;DHT22;54550;48.838;8.828;2023-05-10T15:51:00;17.40;99.90
67750;DHT22;54550;48.838;8.828;2023-05-10T15:53:26;17.00;99.90
67750;DHT22;54550;48.838;8.828;2023-05-10T15:55:51;16.80;99.90
67750;DHT22;54550;48.838;8.828;2023-05-10T15:58:18;16.70;99.90
67750;DHT22;54550;48.838;8.828;2023-05-10T16:00:43;16.50;99.90
67750;DHT22;54550;48.838;8.828;2023-05-10T16:03:09;16.20;99.90